Time;durP1;ratioP1;P1;durP2;ratioP2;P2;SDS_P1;SDS_P2;PMS_P1;PMS_P2;Temp;Humidity;BMP_temperature;BMP_pressure;BME280_temperature;BME280_humidity;BME280_pressure;Samples;Min_cycle;Max_cycle;Signal;HPM_P1;HPM_P2
2021/05/27 00:01:53;;;;;;;5.22;2.97;;;;;;;15.73;85.24;93361.31;5031680;28;20033;-43
2021/05/27 00:04:19;;;;;;;5.10;3.35;;;;;;;15.70;85.31;93362.47;5033603;28;20029;-41
2021/05/27 00:06:44;;;;;;;4.80;3.15;;;;;;;15.71;85.82;93388.28;5033665;28;20025;-43
2021/05/27 00:09:10;;;;;;;5.43;3.50;;;;;;;15.75;85.82;93388.56;5033161;28;20087;-40
2021/05/27 00:11:35;;;;;;;5.97;3.70;;;;;;;15.83;84.99;93389.19;5033670;28;20037;-42
2021/05/27 00:14:01;;;;;;;3.17;2.78;;;;;;;15.83;85.21;93397.53;5033405;28;20509;-42
2021/05/27 00:16:26;;;;;;;4.78;3.33;;;;;;;15.91;84.76;93398.13;5033380;28;20032;-42
2021/05/27 00:18:52;;;;;;;4.53;3.42;;;;;;;15.93;84.93;93392.69;5033239;28;20046;-43
2021/05/27 00:21:21;;;;;;;4.78;3.47;;;;;;;15.85;85.24;93384.47;5033182;28;20025;-40
2021/05/27 00:23:49;;;;;;;4.60;3.33;;;;;;;15.79;84.26;93388.84;5046733;28;20036;-42
2021/05/27 00:26:14;;;;;;;4.03;3.15;;;;;;;15.72;84.78;93379.31;5053084;28;20120;-41
2021/05/27 00:28:40;;;;;;;4.38;3.70;;;;;;;15.62;85.55;93386.19;5053031;28;20100;-41
2021/05/27 00:31:06;;;;;;;4.38;3.30;;;;;;;15.62;85.42;93389.72;5053148;28;20024;-42
2021/05/27 00:33:31;;;;;;;3.83;3.35;;;;;;;15.65;85.09;93376.69;5052969;28;20257;-42
2021/05/27 00:35:57;;;;;;;8.57;3.17;;;;;;;15.70;84.72;93367.34;5053170;28;20017;-42
2021/05/27 00:38:22;;;;;;;7.03;4.72;;;;;;;15.69;84.54;93377.00;5052563;28;20521;-44
2021/05/27 00:40:48;;;;;;;8.25;3.97;;;;;;;15.78;83.98;93373.50;5053127;28;20032;-43
2021/05/27 00:43:13;;;;;;;4.82;3.30;;;;;;;15.78;83.88;93379.06;5052969;28;20024;-45
2021/05/27 00:45:39;;;;;;;6.60;3.28;;;;;;;15.79;83.55;93377.72;5053129;28;20025;-42
2021/05/27 00:48:04;;;;;;;4.95;4.10;;;;;;;15.70;83.58;93375.69;5052535;28;20051;-43
2021/05/27 00:50:30;;;;;;;5.22;4.13;;;;;;;15.79;83.10;93383.28;5052665;28;20116;-41
2021/05/27 00:52:57;;;;;;;4.70;3.35;;;;;;;15.70;82.94;93387.53;5052568;28;20016;-41
2021/05/27 00:55:25;;;;;;;10.45;4.20;;;;;;;15.54;84.15;93391.91;5052738;28;20145;-43
2021/05/27 00:57:53;;;;;;;4.28;3.67;;;;;;;15.57;83.79;93387.94;5035123;28;20017;-42
2021/05/27 01:00:21;;;;;;;4.03;3.60;;;;;;;15.40;84.74;93395.66;5052391;28;20513;-41
2021/05/27 01:02:47;;;;;;;6.80;4.13;;;;;;;15.33;85.03;93386.13;5052387;28;20032;-41
2021/05/27 01:05:14;;;;;;;3.75;3.25;;;;;;;15.34;84.95;93382.00;5052637;28;20021;-42
2021/05/27 01:07:40;;;;;;;4.88;3.63;;;;;;;15.41;85.29;93377.63;5048780;28;20017;-43
2021/05/27 01:10:08;;;;;;;6.22;4.28;;;;;;;15.40;84.66;93378.97;5052543;28;20027;-42
2021/05/27 01:12:33;;;;;;;6.22;4.10;;;;;;;15.40;84.51;93378.97;5051396;28;20036;-41
2021/05/27 01:17:43;;;;;;;4.97;3.33;;;;;;;15.40;85.22;93379.69;5052096;28;20115;-42
2021/05/27 01:20:10;;;;;;;7.30;4.68;;;;;;;15.36;85.03;93379.38;5037633;28;20037;-42
2021/05/27 01:22:36;;;;;;;19.33;4.28;;;;;;;15.40;84.82;93374.13;5032374;28;20025;-41
2021/05/27 01:25:02;;;;;;;3.90;3.42;;;;;;;15.42;84.07;93363.13;5032066;28;20026;-43
2021/05/27 01:27:28;;;;;;;6.63;3.72;;;;;;;15.32;84.78;93364.44;5031631;28;20025;-45
2021/05/27 01:29:54;;;;;;;5.22;3.53;;;;;;;15.30;84.82;93361.50;5032352;28;20029;-42
2021/05/27 01:32:20;;;;;;;6.78;3.88;;;;;;;15.31;84.05;93363.69;5032219;28;20622;-43
2021/05/27 01:34:45;;;;;;;4.30;3.38;;;;;;;15.26;84.35;93370.28;5031949;28;20163;-42
2021/05/27 01:37:11;;;;;;;7.95;3.58;;;;;;;15.26;84.18;93367.50;5031819;28;20104;-42
2021/05/27 01:39:37;;;;;;;5.60;3.95;;;;;;;15.18;84.26;93362.06;5031849;28;20025;-43
2021/05/27 01:42:03;;;;;;;4.15;3.75;;;;;;;14.89;83.94;93352.91;5012685;28;20056;-42
2021/05/27 01:44:29;;;;;;;6.35;4.57;;;;;;;15.04;83.33;93366.56;5032035;28;20030;-41
2021/05/27 01:46:54;;;;;;;6.00;3.17;;;;;;;15.19;82.35;93371.88;5031713;28;20064;-42
2021/05/27 01:49:19;;;;;;;4.70;3.83;;;;;;;15.05;82.62;93364.53;5031602;28;20025;-42
2021/05/27 01:51:49;;;;;;;7.03;3.85;;;;;;;15.04;82.91;93368.59;5031884;28;20106;-43
2021/05/27 01:54:15;;;;;;;4.55;3.97;;;;;;;14.98;82.33;93348.69;5031535;28;20108;-43
2021/05/27 01:56:41;;;;;;;6.20;4.28;;;;;;;15.08;82.30;93366.88;5031809;28;20036;-42
2021/05/27 01:59:07;;;;;;;6.07;3.88;;;;;;;15.06;82.65;93363.94;5031416;28;20112;-43
2021/05/27 02:01:32;;;;;;;5.32;3.85;;;;;;;15.04;82.77;93366.56;5031503;28;20060;-43
2021/05/27 02:03:58;;;;;;;6.40;3.60;;;;;;;14.98;83.08;93363.31;5031654;28;20029;-42
2021/05/27 02:06:23;;;;;;;3.67;2.97;;;;;;;14.98;83.48;93365.38;5031600;28;20490;-41
2021/05/27 02:09:09;;;;;;;4.47;3.33;;;;;;;14.97;84.15;93363.88;5030466;28;20029;-43
2021/05/27 02:11:46;;;;;;;7.43;4.15;;;;;;;14.86;84.05;93356.81;5031628;28;20527;-41
2021/05/27 02:14:13;;;;;;;7.70;4.22;;;;;;;14.82;84.21;93355.78;5031491;28;20036;-42
2021/05/27 02:16:40;;;;;;;4.28;3.88;;;;;;;14.69;84.17;93358.94;5029809;28;20510;-42
2021/05/27 02:19:07;;;;;;;5.95;4.70;;;;;;;14.49;83.95;93355.31;5050310;28;20052;-42
2021/05/27 02:21:33;;;;;;;3.90;3.30;;;;;;;14.38;84.03;93361.41;5050965;28;20021;-41
2021/05/27 02:24:00;;;;;;;4.68;3.63;;;;;;;14.38;84.27;93355.84;5051079;28;20021;-45
2021/05/27 02:26:27;;;;;;;4.13;3.55;;;;;;;14.29;84.55;93359.31;5051106;28;20021;-42
2021/05/27 02:28:53;;;;;;;3.58;3.22;;;;;;;14.41;83.60;93358.22;5050767;28;20025;-42
2021/05/27 02:31:19;;;;;;;7.40;4.07;;;;;;;14.49;83.05;93355.31;5050611;28;20036;-42
2021/05/27 02:33:44;;;;;;;6.22;3.55;;;;;;;14.61;82.21;93364.63;5050710;28;20082;-43
2021/05/27 02:36:10;;;;;;;9.15;5.22;;;;;;;14.53;82.44;93360.47;5050682;28;20115;-43
2021/05/27 02:38:36;;;;;;;6.85;3.95;;;;;;;14.52;82.48;93362.53;5050541;28;20159;-43
2021/05/27 02:41:03;;;;;;;7.18;3.95;;;;;;;14.35;83.39;93368.13;5050562;28;20017;-43
2021/05/27 02:43:30;;;;;;;6.35;4.22;;;;;;;14.20;83.79;93362.72;5050792;28;20031;-42
2021/05/27 02:45:55;;;;;;;4.03;3.10;;;;;;;14.18;83.65;93357.03;5050780;28;20383;-44
2021/05/27 02:48:21;;;;;;;6.97;4.15;;;;;;;14.26;83.69;93363.22;5032872;28;20028;-44
2021/05/27 02:50:46;;;;;;;6.78;4.15;;;;;;;14.42;82.69;93358.97;5050382;28;20032;-41
2021/05/27 02:53:12;;;;;;;4.60;3.53;;;;;;;14.38;83.16;93355.84;5050296;28;20025;-45
2021/05/27 02:55:37;;;;;;;4.95;3.55;;;;;;;14.38;83.07;93361.41;5050637;28;20092;-42
2021/05/27 02:58:03;;;;;;;4.93;3.67;;;;;;;14.47;81.96;93355.16;5050291;28;20498;-42
2021/05/27 03:00:28;;;;;;;5.53;4.28;;;;;;;14.27;82.74;93359.84;5050517;28;20024;-41
2021/05/27 03:02:53;;;;;;;3.90;3.17;;;;;;;14.30;83.50;93361.50;5050224;28;20450;-41
2021/05/27 03:05:19;;;;;;;9.20;3.30;;;;;;;14.17;83.84;93350.00;5050087;28;20029;-44
2021/05/27 03:07:44;;;;;;;4.10;3.13;;;;;;;14.09;83.81;93347.31;5039465;28;20056;-44
2021/05/27 03:10:11;;;;;;;3.40;3.03;;;;;;;14.01;84.33;93349.44;5030184;28;20029;-46
2021/05/27 03:12:36;;;;;;;6.15;3.45;;;;;;;14.09;84.25;93346.59;5044266;28;20027;-43
2021/05/27 03:15:02;;;;;;;4.50;3.42;;;;;;;14.24;83.52;93349.16;5049988;28;20029;-41
2021/05/27 03:17:27;;;;;;;6.05;3.55;;;;;;;14.41;82.30;93349.16;5050119;28;20020;-45
2021/05/27 03:19:52;;;;;;;3.70;3.28;;;;;;;14.49;82.01;93343.50;5050174;28;20021;-41
2021/05/27 03:22:18;;;;;;;6.07;4.30;;;;;;;14.55;82.07;93339.16;5047584;28;20032;-45
2021/05/27 03:24:43;;;;;;;3.78;2.83;;;;;;;14.46;82.49;93341.88;5048158;28;20021;-41
2021/05/27 03:27:10;;;;;;;4.05;3.28;;;;;;;14.60;82.89;93340.16;5047581;28;20528;-42
2021/05/27 03:29:36;;;;;;;5.50;4.25;;;;;;;14.44;83.69;93343.16;5047548;28;20021;-43
2021/05/27 03:32:01;;;;;;;4.50;3.85;;;;;;;14.66;82.45;93340.66;5047430;28;20021;-43
2021/05/27 03:34:27;;;;;;;4.65;3.20;;;;;;;14.73;82.07;93337.00;5048221;28;20083;-42
2021/05/27 03:36:52;;;;;;;4.05;3.25;;;;;;;14.72;83.18;93338.34;5052299;28;20024;-43
2021/05/27 03:39:18;;;;;;;3.55;3.13;;;;;;;14.73;83.39;93348.13;5038948;28;20021;-44
2021/05/27 03:41:43;;;;;;;6.63;4.22;;;;;;;14.75;83.24;93351.09;5033632;28;20056;-44
2021/05/27 03:44:09;;;;;;;4.55;3.28;;;;;;;14.90;81.40;93351.56;5032448;28;20032;-43
2021/05/27 03:46:35;;;;;;;5.53;3.65;;;;;;;14.95;80.56;93350.56;5032422;28;20450;-44
2021/05/27 03:49:00;;;;;;;4.93;3.35;;;;;;;14.91;80.69;93346.75;5032390;28;20033;-44
2021/05/27 03:51:26;;;;;;;15.05;5.72;;;;;;;14.86;81.74;93347.75;5031329;28;20333;-44
2021/05/27 03:53:51;;;;;;;7.55;3.55;;;;;;;14.84;81.74;93353.91;5032322;28;20056;-44
2021/05/27 03:56:17;;;;;;;3.67;3.00;;;;;;;14.81;81.74;93355.03;5033275;28;20491;-43
2021/05/27 04:01:26;;;;;;;5.00;3.08;;;;;;;15.00;80.44;93349.56;5032705;28;20032;-41
2021/05/27 04:09:20;;;;;;;4.43;2.78;;;;;;;14.80;82.08;93342.47;5049598;28;20076;-44
2021/05/27 04:11:45;;;;;;;3.67;3.05;;;;;;;14.99;81.70;93336.22;5053430;28;20032;-42
2021/05/27 04:14:10;;;;;;;3.55;3.10;;;;;;;15.04;81.68;93341.53;5053633;28;20083;-41
2021/05/27 04:16:36;;;;;;;6.28;3.45;;;;;;;15.20;81.25;93334.41;5053673;28;20021;-43
2021/05/27 04:19:02;;;;;;;4.97;3.10;;;;;;;15.26;81.08;93342.47;5053080;28;20430;-43
2021/05/27 04:21:27;;;;;;;5.63;3.75;;;;;;;15.41;81.08;93349.81;5053759;28;20032;-43
2021/05/27 04:23:53;;;;;;;5.32;3.38;;;;;;;15.46;81.05;93348.84;5052845;28;20028;-42
2021/05/27 04:26:19;;;;;;;4.90;3.67;;;;;;;15.61;80.65;93345.78;5053368;28;20029;-42
2021/05/27 04:28:46;;;;;;;4.68;3.03;;;;;;;15.73;80.43;93355.75;5052987;28;20025;-43
2021/05/27 04:31:16;;;;;;;3.53;2.88;;;;;;;15.77;79.93;93350.47;5052963;28;20517;-45
2021/05/27 04:33:47;;;;;;;7.28;3.55;;;;;;;15.87;79.61;93358.84;5053601;28;20029;-41
2021/05/27 04:36:14;;;;;;;6.05;3.05;;;;;;;15.75;78.85;93360.72;5053018;28;20715;-41
2021/05/27 04:38:41;;;;;;;4.60;3.38;;;;;;;15.78;79.42;93365.13;5053184;28;20025;-42
2021/05/27 04:41:06;;;;;;;11.60;3.90;;;;;;;15.91;79.78;93371.00;5053112;28;20025;-42
2021/05/27 04:43:34;;;;;;;4.68;4.10;;;;;;;15.78;79.98;93373.50;5053132;28;20414;-42
2021/05/27 04:46:00;;;;;;;4.72;3.45;;;;;;;15.93;79.59;93381.56;5052996;28;20029;-41
2021/05/27 04:48:26;;;;;;;4.40;3.30;;;;;;;16.18;79.20;93384.78;5051329;28;20036;-43
2021/05/27 04:50:52;;;;;;;8.18;4.88;;;;;;;16.18;79.27;93390.34;5052613;28;20498;-42
2021/05/27 04:53:19;;;;;;;9.25;3.78;;;;;;;16.04;78.84;93388.59;5052765;28;20093;-41
2021/05/27 04:55:45;;;;;;;5.45;3.97;;;;;;;15.87;80.38;93386.69;5051671;28;20036;-43
2021/05/27 04:58:11;;;;;;;4.20;3.35;;;;;;;15.70;80.78;93373.63;5052866;28;20024;-44
2021/05/27 05:00:37;;;;;;;7.05;4.38;;;;;;;15.59;81.72;93384.59;5052858;28;20086;-42
2021/05/27 05:03:02;;;;;;;4.95;3.78;;;;;;;15.49;82.69;93383.81;5052701;28;20033;-41
2021/05/27 05:05:29;;;;;;;5.10;3.70;;;;;;;15.51;83.32;93378.41;5035210;28;20106;-42
2021/05/27 05:07:55;;;;;;;4.18;3.38;;;;;;;15.73;83.27;93380.81;5032063;28;20057;-41
2021/05/27 05:10:22;;;;;;;6.00;4.07;;;;;;;16.03;82.80;93373.94;5032683;28;20455;-43
2021/05/27 05:12:50;;;;;;;7.60;4.25;;;;;;;16.29;82.13;93364.69;5031985;28;20033;-41
2021/05/27 05:15:18;;;;;;;6.13;3.70;;;;;;;16.42;81.87;93364.22;5032227;28;20462;-41
2021/05/27 05:17:50;;;;;;;4.93;4.25;;;;;;;16.55;81.43;93363.03;5032418;28;20049;-41
2021/05/27 05:20:17;;;;;;;4.03;3.28;;;;;;;16.84;80.11;93357.41;5032288;28;20088;-43
2021/05/27 05:22:43;;;;;;;6.50;4.25;;;;;;;17.02;80.04;93369.81;5032438;28;20022;-43
2021/05/27 05:25:09;;;;;;;5.65;4.65;;;;;;;17.13;80.05;93363.63;5032298;28;20079;-44
2021/05/27 05:27:34;;;;;;;8.07;4.05;;;;;;;17.23;80.19;93370.63;5032337;28;20037;-47
2021/05/27 05:30:00;;;;;;;9.88;4.72;;;;;;;17.32;78.84;93367.06;5032283;28;20029;-41
2021/05/27 05:32:25;;;;;;;13.75;6.55;;;;;;;17.48;78.06;93369.47;5032271;28;20036;-42
2021/05/27 05:34:51;;;;;;;7.65;4.82;;;;;;;17.60;77.85;93364.72;5032246;28;20441;-44
2021/05/27 05:37:17;;;;;;;4.03;3.60;;;;;;;17.86;76.32;93358.81;5031821;28;20495;-43
2021/05/27 05:39:42;;;;;;;5.70;4.47;;;;;;;18.14;75.47;93355.06;5031859;28;20038;-46
2021/05/27 05:42:08;;;;;;;7.25;4.25;;;;;;;18.41;74.46;93357.44;5032110;28;20112;-42
2021/05/27 05:44:34;;;;;;;7.45;4.30;;;;;;;18.63;72.60;93352.56;5031825;28;20461;-46
2021/05/27 05:46:59;;;;;;;4.47;4.07;;;;;;;18.76;71.59;93360.38;5031834;28;20029;-43
2021/05/27 05:49:25;;;;;;;4.50;3.67;;;;;;;18.91;69.77;93360.66;5031949;28;20025;-43
2021/05/27 05:51:50;;;;;;;4.93;3.92;;;;;;;18.80;71.52;93355.75;5031951;28;20414;-45
2021/05/27 05:54:16;;;;;;;5.50;3.70;;;;;;;19.00;71.44;93355.53;5031578;28;20036;-47
2021/05/27 05:56:41;;;;;;;6.90;3.72;;;;;;;19.12;71.11;93362.63;5031521;28;20025;-44
2021/05/27 05:59:07;;;;;;;5.78;3.58;;;;;;;19.23;70.71;93359.09;5031021;28;20040;-46
2021/05/27 06:01:32;;;;;;;5.35;4.00;;;;;;;19.21;70.09;93361.06;5047047;28;20028;-44
2021/05/27 06:03:57;;;;;;;4.47;3.30;;;;;;;18.89;70.50;93357.72;5051392;28;20029;-43
2021/05/27 06:06:23;;;;;;;5.68;3.75;;;;;;;19.02;71.20;93355.66;5051565;28;20048;-43
2021/05/27 06:08:48;;;;;;;4.30;3.45;;;;;;;19.19;72.07;93358.84;5031802;28;20040;-45
2021/05/27 06:11:14;;;;;;;5.53;3.55;;;;;;;18.92;70.41;93358.59;5031205;28;20034;-44
2021/05/27 06:13:39;;;;;;;4.63;3.58;;;;;;;19.21;70.98;93367.38;5031344;28;20029;-42
2021/05/27 06:16:05;;;;;;;6.80;3.58;;;;;;;19.23;69.40;93372.38;5030321;28;20036;-43
2021/05/27 06:18:30;;;;;;;6.15;4.28;;;;;;;19.35;68.85;93359.13;5030874;28;20056;-43
2021/05/27 06:20:56;;;;;;;7.25;4.30;;;;;;;19.39;69.53;93360.09;5031101;28;20025;-44
2021/05/27 06:23:21;;;;;;;5.25;3.45;;;;;;;19.40;69.84;93364.38;5031241;28;20036;-44
2021/05/27 06:25:47;;;;;;;7.45;4.50;;;;;;;19.62;70.18;93362.88;5031306;28;20033;-42
2021/05/27 06:28:12;;;;;;;5.75;4.25;;;;;;;19.71;69.71;93357.78;5031182;28;20022;-42
2021/05/27 06:30:38;;;;;;;5.75;4.15;;;;;;;19.86;69.97;93349.56;5030906;28;20072;-42
2021/05/27 06:33:03;;;;;;;5.22;4.05;;;;;;;20.07;69.48;93359.88;5013081;28;20110;-43
2021/05/27 06:35:30;;;;;;;5.75;4.25;;;;;;;20.19;69.47;93333.25;5030778;28;20056;-43
2021/05/27 06:37:56;;;;;;;7.20;4.78;;;;;;;20.34;68.57;93348.84;5030821;28;20025;-46
2021/05/27 06:40:23;;;;;;;5.60;3.78;;;;;;;20.38;67.14;93346.25;5030905;28;20036;-45
2021/05/27 06:42:49;;;;;;;5.35;4.05;;;;;;;20.55;68.30;93347.91;5030952;28;20037;-45
2021/05/27 06:45:16;;;;;;;6.00;4.78;;;;;;;20.78;68.05;93342.91;5030564;28;20029;-43
2021/05/27 06:47:42;;;;;;;12.38;4.05;;;;;;;20.82;67.07;93340.31;5030551;28;20460;-42
2021/05/27 06:50:08;;;;;;;5.50;3.67;;;;;;;20.69;65.40;93332.56;5030899;28;20099;-45
2021/05/27 06:52:33;;;;;;;6.63;4.40;;;;;;;20.63;64.77;93332.25;5030473;28;20052;-45
2021/05/27 06:54:59;;;;;;;5.90;4.15;;;;;;;20.77;66.48;93329.50;5030762;28;20030;-43
2021/05/27 06:57:25;;;;;;;10.20;3.83;;;;;;;21.00;65.44;93330.06;5042830;28;20554;-44
2021/05/27 06:59:50;;;;;;;5.85;3.85;;;;;;;21.07;64.64;93325.53;5050525;28;20020;-45
2021/05/27 07:02:17;;;;;;;5.03;4.10;;;;;;;21.12;64.93;93325.13;5050384;28;20459;-42
2021/05/27 07:04:44;;;;;;;7.05;4.45;;;;;;;21.28;66.38;93325.25;5050232;28;20036;-45
2021/05/27 07:07:10;;;;;;;4.13;3.05;;;;;;;21.28;64.88;93305.59;5043691;28;20033;-45
2021/05/27 07:09:35;;;;;;;5.70;3.72;;;;;;;21.57;63.67;93322.53;5030125;28;20415;-42
2021/05/27 07:12:01;;;;;;;8.40;3.78;;;;;;;21.84;63.80;93319.03;5029495;28;20100;-45
2021/05/27 07:14:26;;;;;;;8.27;4.45;;;;;;;22.26;63.22;93320.41;5030602;28;20029;-46
2021/05/27 07:16:52;;;;;;;6.25;3.78;;;;;;;22.40;62.36;93321.81;5030154;28;20036;-44
2021/05/27 07:19:17;;;;;;;6.15;4.18;;;;;;;22.53;62.20;93314.66;5029930;28;20056;-46
2021/05/27 07:21:44;;;;;;;3.85;3.35;;;;;;;22.83;60.87;93313.31;5030414;28;20029;-44
2021/05/27 07:24:09;;;;;;;5.05;3.85;;;;;;;23.10;59.21;93310.34;5029961;28;20033;-44
2021/05/27 07:26:34;;;;;;;3.95;3.03;;;;;;;23.55;57.93;93313.09;5030140;28;20087;-42
2021/05/27 07:29:01;;;;;;;3.80;3.13;;;;;;;25.25;53.64;93310.19;5029874;28;20025;-44
2021/05/27 07:31:26;;;;;;;4.57;3.67;;;;;;;26.77;47.63;93316.97;5029992;28;20025;-46
2021/05/27 07:33:52;;;;;;;3.38;2.88;;;;;;;28.37;43.16;93317.38;5030220;28;20029;-45
2021/05/27 07:36:17;;;;;;;4.93;2.90;;;;;;;29.07;42.46;93317.69;5029936;28;20033;-43
2021/05/27 07:38:43;;;;;;;3.60;2.90;;;;;;;29.81;39.75;93319.38;5030307;28;20017;-43
2021/05/27 07:41:09;;;;;;;3.45;2.97;;;;;;;30.68;40.13;93318.19;5029757;28;20527;-45
2021/05/27 07:43:35;;;;;;;5.13;2.85;;;;;;;31.80;34.91;93321.31;5029928;28;20075;-43
2021/05/27 07:46:01;;;;;;;3.33;2.45;;;;;;;32.89;34.79;93314.69;5030424;28;20045;-45
2021/05/27 07:48:26;;;;;;;3.13;2.83;;;;;;;32.99;33.62;93326.22;5030159;28;20083;-45
2021/05/27 07:50:51;;;;;;;2.72;2.47;;;;;;;33.14;33.60;93318.47;5030193;28;20034;-44
2021/05/27 07:53:20;;;;;;;4.95;3.35;;;;;;;33.20;34.09;93316.38;5039034;28;20032;-44
2021/05/27 07:55:45;;;;;;;3.83;2.88;;;;;;;32.40;34.72;93321.34;5050094;28;20028;-43
2021/05/27 07:58:11;;;;;;;3.40;3.10;;;;;;;31.69;35.41;93311.91;5049567;28;20031;-45
2021/05/27 08:00:37;;;;;;;5.97;3.78;;;;;;;31.53;36.46;93319.53;5049658;28;20025;-44
2021/05/27 08:03:03;;;;;;;4.20;3.58;;;;;;;31.18;35.80;93318.28;5049931;28;20060;-45
2021/05/27 08:05:28;;;;;;;4.53;3.25;;;;;;;30.11;37.87;93318.53;5049915;28;20489;-46
2021/05/27 08:07:54;;;;;;;4.72;3.60;;;;;;;28.87;39.39;93314.41;5037802;28;20119;-46
2021/05/27 08:10:19;;;;;;;3.90;3.50;;;;;;;28.69;42.43;93308.25;5012327;28;20033;-44
2021/05/27 08:12:45;;;;;;;4.95;4.20;;;;;;;28.36;43.45;93312.38;5029692;28;20026;-47
2021/05/27 08:15:11;;;;;;;6.10;3.47;;;;;;;29.04;42.05;93313.38;5029815;28;20049;-45
2021/05/27 08:17:36;;;;;;;3.45;3.08;;;;;;;29.08;41.69;93322.72;5029701;28;20045;-44
2021/05/27 08:20:04;;;;;;;5.13;3.22;;;;;;;29.65;39.21;93313.31;5029942;28;20030;-46
2021/05/27 08:22:30;;;;;;;4.53;3.53;;;;;;;30.38;38.38;93309.09;5031071;28;20034;-46
2021/05/27 08:24:55;;;;;;;5.00;3.50;;;;;;;31.06;37.44;93298.84;5032399;28;20025;-44
2021/05/27 08:27:21;;;;;;;6.63;3.38;;;;;;;31.80;36.80;93301.34;5032743;28;20033;-43
2021/05/27 08:29:47;;;;;;;3.22;2.67;;;;;;;31.79;34.89;93300.63;5033241;28;20491;-47
2021/05/27 08:32:12;;;;;;;5.60;3.65;;;;;;;32.18;34.78;93304.69;5033085;28;20040;-43
2021/05/27 08:34:38;;;;;;;7.25;3.20;;;;;;;32.68;34.30;93295.94;5033280;28;20345;-45
2021/05/27 08:37:04;;;;;;;4.40;2.88;;;;;;;32.00;34.28;93298.75;5032981;28;20100;-44
2021/05/27 08:39:29;;;;;;;4.10;3.00;;;;;;;31.52;36.57;93293.13;5033344;28;20117;-46
2021/05/27 08:41:56;;;;;;;2.80;2.50;;;;;;;31.76;36.41;93295.56;5033315;28;20055;-45
2021/05/27 08:44:22;;;;;;;3.70;2.88;;;;;;;31.75;36.80;93300.56;5033194;28;20037;-45
2021/05/27 08:46:48;;;;;;;3.53;2.30;;;;;;;32.02;35.52;93288.06;5033144;28;20568;-45
2021/05/27 08:49:14;;;;;;;3.97;2.97;;;;;;;31.68;37.02;93287.66;5039683;28;20031;-45
2021/05/27 08:51:40;;;;;;;6.28;2.92;;;;;;;30.63;38.64;93293.88;5052647;28;20072;-44
2021/05/27 08:54:06;;;;;;;3.63;3.03;;;;;;;29.48;40.67;93293.75;5053265;28;20056;-44
2021/05/27 08:56:32;;;;;;;5.93;3.95;;;;;;;28.69;41.75;93296.91;5052925;28;20028;-45
2021/05/27 08:58:58;;;;;;;3.53;3.08;;;;;;;28.71;42.90;93294.84;5052832;28;20017;-44
2021/05/27 09:01:24;;;;;;;4.47;3.75;;;;;;;29.36;40.54;93290.66;5052683;28;20031;-46
2021/05/27 09:03:50;;;;;;;3.67;3.03;;;;;;;30.54;39.35;93292.28;5052569;28;20024;-44
2021/05/27 09:06:16;;;;;;;4.35;3.00;;;;;;;31.47;37.43;93291.63;5052486;28;20021;-46
2021/05/27 09:08:42;;;;;;;4.78;3.25;;;;;;;32.62;36.35;93290.13;5034200;28;20036;-45
2021/05/27 09:11:08;;;;;;;4.80;3.42;;;;;;;33.75;32.98;93290.97;5032365;28;20081;-45
2021/05/27 09:13:36;;;;;;;3.88;3.20;;;;;;;34.06;32.66;93292.56;5032732;28;20052;-46
2021/05/27 09:16:20;;;;;;;2.80;2.50;;;;;;;34.13;31.52;93291.19;5032606;28;20021;-46
2021/05/27 09:18:45;;;;;;;2.72;2.22;;;;;;;34.55;29.87;93285.56;5032157;28;20117;-47
2021/05/27 09:21:13;;;;;;;3.67;2.30;;;;;;;35.50;28.21;93277.69;5032458;28;20061;-45
2021/05/27 09:23:48;;;;;;;3.67;2.13;;;;;;;35.61;29.70;93267.63;5014569;28;20418;-48
2021/05/27 09:26:15;;;;;;;3.35;2.13;;;;;;;36.45;27.02;93274.50;5032524;28;20037;-46
2021/05/27 09:28:43;;;;;;;2.13;1.92;;;;;;;35.70;28.53;93274.06;5031997;28;20599;-47
2021/05/27 09:31:11;;;;;;;2.93;1.90;;;;;;;35.62;29.51;93266.19;5032033;28;20032;-47
2021/05/27 09:33:47;;;;;;;2.72;2.17;;;;;;;35.41;30.10;93264.06;5031505;28;20108;-45
2021/05/27 09:36:17;;;;;;;2.55;2.35;;;;;;;35.53;30.87;93258.31;5032280;28;20029;-48
2021/05/27 09:38:48;;;;;;;4.15;2.38;;;;;;;34.72;29.88;93255.47;5031948;28;20406;-47
2021/05/27 09:41:18;;;;;;;2.80;2.22;;;;;;;34.83;31.52;93256.19;5013638;28;20442;-48
2021/05/27 09:43:52;;;;;;;3.25;2.60;;;;;;;35.35;30.92;93255.44;5030859;28;20124;-46
2021/05/27 09:46:20;;;;;;;2.75;2.55;;;;;;;35.78;29.08;93253.91;5045340;28;20052;-47
2021/05/27 09:48:45;;;;;;;5.95;2.30;;;;;;;35.51;27.76;93252.56;5051655;28;20037;-47
2021/05/27 09:51:27;;;;;;;3.08;2.08;;;;;;;34.55;29.23;93256.16;5051806;28;20115;-44
2021/05/27 09:53:53;;;;;;;3.15;2.35;;;;;;;33.34;28.46;93262.13;5051546;28;20025;-46
2021/05/27 09:56:40;;;;;;;4.05;2.15;;;;;;;33.49;31.36;93268.63;5051453;28;20037;-44
2021/05/27 09:59:07;;;;;;;2.35;2.15;;;;;;;33.50;30.65;93253.66;5051663;28;20175;-44
2021/05/27 10:01:32;;;;;;;3.58;2.67;;;;;;;33.03;30.27;93242.59;5051286;28;20039;-43
2021/05/27 10:04:24;;;;;;;5.15;2.55;;;;;;;32.12;31.40;93265.34;5051662;28;20032;-44
2021/05/27 10:06:50;;;;;;;3.05;2.22;;;;;;;32.21;31.40;93265.41;5043870;28;20040;-42
2021/05/27 10:09:15;;;;;;;2.20;2.00;;;;;;;31.98;32.13;93268.03;5013336;28;20037;-46
2021/05/27 10:11:41;;;;;;;2.60;2.03;;;;;;;31.25;31.51;93266.34;5013672;28;20041;-45
2021/05/27 10:14:10;;;;;;;4.25;3.17;;;;;;;31.20;32.04;93262.00;5030849;28;20025;-45
2021/05/27 10:16:37;;;;;;;2.22;2.00;;;;;;;31.36;32.55;93255.81;5031262;28;20080;-44
2021/05/27 10:19:03;;;;;;;2.10;1.90;;;;;;;31.17;34.12;93257.66;5030848;28;20045;-46
2021/05/27 10:21:29;;;;;;;3.28;2.22;;;;;;;31.56;34.07;93263.91;5031432;28;20441;-45
2021/05/27 10:23:54;;;;;;;5.28;2.38;;;;;;;31.69;31.67;93268.34;5031083;28;20083;-45
2021/05/27 10:26:21;;;;;;;3.58;2.20;;;;;;;30.92;33.54;93267.28;5031034;28;20026;-44
2021/05/27 10:28:48;;;;;;;2.63;2.15;;;;;;;30.56;36.17;93260.97;5031258;28;20037;-43
2021/05/27 10:31:15;;;;;;;3.70;2.03;;;;;;;31.34;36.06;93255.75;5013551;28;20055;-45
2021/05/27 10:33:41;;;;;;;6.28;1.95;;;;;;;31.86;30.93;93264.31;5031171;28;20021;-43
2021/05/27 10:36:09;;;;;;;2.00;1.83;;;;;;;31.57;31.22;93262.50;5031160;28;20104;-46
2021/05/27 10:38:43;;;;;;;4.60;3.00;;;;;;;31.73;32.02;93251.31;5031060;28;20021;-47
2021/05/27 10:41:20;;;;;;;2.25;1.88;;;;;;;31.21;32.93;93262.69;5033035;28;20474;-46
2021/05/27 10:44:11;;;;;;;7.50;2.25;;;;;;;31.44;32.25;93267.34;5050966;28;20033;-43
2021/05/27 10:46:56;;;;;;;3.10;2.05;;;;;;;30.95;31.93;93260.19;5039154;28;20068;-46
2021/05/27 10:49:41;;;;;;;4.50;1.92;;;;;;;30.66;33.01;93259.03;5049752;28;20414;-44
2021/05/27 10:52:25;;;;;;;2.85;1.90;;;;;;;30.79;33.75;93259.94;5051104;28;20380;-43
2021/05/27 10:54:51;;;;;;;2.50;1.92;;;;;;;31.53;31.36;93260.34;5050700;28;20477;-43
2021/05/27 10:57:41;;;;;;;2.70;2.00;;;;;;;31.51;31.97;93268.88;5032364;28;20057;-44
2021/05/27 11:00:18;;;;;;;2.53;1.70;;;;;;;31.19;33.24;93276.94;5049835;28;20024;-43
2021/05/27 11:02:44;;;;;;;2.60;1.98;;;;;;;30.32;33.31;93271.97;5050260;28;20407;-44
2021/05/27 11:05:22;;;;;;;2.05;1.85;;;;;;;29.12;36.47;93265.94;5050237;28;20025;-46
2021/05/27 11:08:20;;;;;;;4.03;2.10;;;;;;;28.31;37.18;93263.28;5039556;28;20022;-43
2021/05/27 11:10:46;;;;;;;4.20;2.10;;;;;;;27.85;37.83;93258.50;4976158;28;20033;-45
2021/05/27 11:13:11;;;;;;;3.30;2.33;;;;;;;27.28;40.78;93261.84;5030376;28;20026;-44
2021/05/27 11:16:03;;;;;;;3.72;2.00;;;;;;;27.22;38.62;93258.81;5030605;28;20021;-42
2021/05/27 11:18:32;;;;;;;3.72;3.25;;;;;;;27.61;38.62;93253.59;5030151;28;20041;-44
2021/05/27 11:20:58;;;;;;;2.60;2.28;;;;;;;28.00;37.37;93243.31;5030157;28;20031;-44
2021/05/27 11:23:25;;;;;;;1.65;1.55;;;;;;;27.93;37.21;93228.22;5030274;28;20025;-42
2021/05/27 11:25:50;;;;;;;2.30;2.10;;;;;;;27.96;36.66;93220.47;5030127;28;20051;-43
2021/05/27 11:28:16;;;;;;;3.15;2.13;;;;;;;27.96;36.71;93215.50;5030013;28;20022;-43
2021/05/27 11:30:45;;;;;;;3.53;2.22;;;;;;;28.02;38.13;93220.66;5030346;28;20021;-42
2021/05/27 11:33:19;;;;;;;2.30;2.08;;;;;;;28.50;40.71;93216.19;5030162;28;20017;-42
2021/05/27 11:35:47;;;;;;;2.00;1.83;;;;;;;28.53;35.92;93209.13;5030321;28;20041;-41
2021/05/27 11:38:30;;;;;;;8.13;2.38;;;;;;;27.98;36.32;93203.53;5038565;28;20056;-44
2021/05/27 11:41:01;;;;;;;2.78;2.20;;;;;;;28.00;38.25;93195.78;5050215;28;20025;-44
2021/05/27 11:43:32;;;;;;;2.92;2.08;;;;;;;28.20;39.45;93187.75;5050038;28;20029;-44
2021/05/27 11:45:59;;;;;;;2.90;1.90;;;;;;;28.24;37.68;93192.84;5049869;28;20086;-44